sensor_id;sensor_type;location;lat;lon;timestamp;P1;durP1;ratioP1;P2;durP2;ratioP2
71080;SDS011;58740;50.672;18.690;2023-07-24T00:02:03;6.90;;;3.30;;
71080;SDS011;58740;50.672;18.690;2023-07-24T00:04:31;8.40;;;3.10;;
71080;SDS011;58740;50.672;18.690;2023-07-24T00:07:00;7.50;;;3.20;;
71080;SDS011;58740;50.672;18.690;2023-07-24T00:09:28;6.50;;;3.60;;
71080;SDS011;58740;50.672;18.690;2023-07-24T00:11:56;5.80;;;3.10;;
71080;SDS011;58740;50.672;18.690;2023-07-24T00:14:24;7.30;;;3.40;;
71080;SDS011;58740;50.672;18.690;2023-07-24T00:16:52;8.90;;;4.10;;
71080;SDS011;58740;50.672;18.690;2023-07-24T00:19:20;7.00;;;3.10;;
71080;SDS011;58740;50.672;18.690;2023-07-24T00:21:47;8.50;;;3.80;;
71080;SDS011;58740;50.672;18.690;2023-07-24T00:24:15;6.90;;;3.40;;
71080;SDS011;58740;50.672;18.690;2023-07-24T00:26:43;7.10;;;3.70;;
71080;SDS011;58740;50.672;18.690;2023-07-24T00:29:10;12.10;;;4.30;;
71080;SDS011;58740;50.672;18.690;2023-07-24T00:31:38;11.50;;;4.20;;
71080;SDS011;58740;50.672;18.690;2023-07-24T00:34:06;7.50;;;3.90;;
71080;SDS011;58740;50.672;18.690;2023-07-24T00:36:34;7.70;;;3.60;;
71080;SDS011;58740;50.672;18.690;2023-07-24T00:39:01;8.40;;;3.60;;
71080;SDS011;58740;50.672;18.690;2023-07-24T00:41:29;11.90;;;4.30;;
71080;SDS011;58740;50.672;18.690;2023-07-24T00:43:57;10.90;;;4.40;;
71080;SDS011;58740;50.672;18.690;2023-07-24T00:46:25;7.80;;;3.80;;
71080;SDS011;58740;50.672;18.690;2023-07-24T00:48:53;7.50;;;3.70;;
71080;SDS011;58740;50.672;18.690;2023-07-24T00:51:21;8.10;;;3.60;;
71080;SDS011;58740;50.672;18.690;2023-07-24T00:53:49;7.70;;;3.60;;
71080;SDS011;58740;50.672;18.690;2023-07-24T00:56:17;7.60;;;3.80;;
71080;SDS011;58740;50.672;18.690;2023-07-24T00:58:45;8.20;;;4.50;;
71080;SDS011;58740;50.672;18.690;2023-07-24T01:01:13;7.80;;;4.00;;
71080;SDS011;58740;50.672;18.690;2023-07-24T01:03:41;9.60;;;3.80;;
71080;SDS011;58740;50.672;18.690;2023-07-24T01:06:11;8.40;;;4.20;;
71080;SDS011;58740;50.672;18.690;2023-07-24T01:08:38;8.80;;;4.00;;
71080;SDS011;58740;50.672;18.690;2023-07-24T01:11:20;8.20;;;4.10;;
71080;SDS011;58740;50.672;18.690;2023-07-24T01:13:57;7.60;;;3.80;;
71080;SDS011;58740;50.672;18.690;2023-07-24T01:16:46;6.30;;;3.80;;
71080;SDS011;58740;50.672;18.690;2023-07-24T01:19:33;7.60;;;4.10;;
71080;SDS011;58740;50.672;18.690;2023-07-24T01:22:29;8.70;;;4.10;;
71080;SDS011;58740;50.672;18.690;2023-07-24T01:27:58;9.80;;;4.00;;
71080;SDS011;58740;50.672;18.690;2023-07-24T01:30:26;7.50;;;3.90;;
71080;SDS011;58740;50.672;18.690;2023-07-24T01:32:54;9.10;;;4.20;;
71080;SDS011;58740;50.672;18.690;2023-07-24T01:35:22;8.90;;;4.00;;
71080;SDS011;58740;50.672;18.690;2023-07-24T01:37:51;9.60;;;4.20;;
71080;SDS011;58740;50.672;18.690;2023-07-24T01:40:20;7.50;;;4.10;;
71080;SDS011;58740;50.672;18.690;2023-07-24T01:42:49;8.50;;;4.60;;
71080;SDS011;58740;50.672;18.690;2023-07-24T01:45:17;8.40;;;4.70;;
71080;SDS011;58740;50.672;18.690;2023-07-24T01:47:45;11.10;;;4.80;;
71080;SDS011;58740;50.672;18.690;2023-07-24T01:50:13;13.10;;;4.90;;
71080;SDS011;58740;50.672;18.690;2023-07-24T01:52:41;12.70;;;4.80;;
71080;SDS011;58740;50.672;18.690;2023-07-24T01:55:09;12.00;;;5.20;;
71080;SDS011;58740;50.672;18.690;2023-07-24T01:57:36;10.10;;;5.40;;
71080;SDS011;58740;50.672;18.690;2023-07-24T02:00:05;6.40;;;4.50;;
71080;SDS011;58740;50.672;18.690;2023-07-24T02:02:33;8.50;;;4.60;;
71080;SDS011;58740;50.672;18.690;2023-07-24T02:05:01;11.90;;;6.10;;
71080;SDS011;58740;50.672;18.690;2023-07-24T02:07:29;9.90;;;6.30;;
71080;SDS011;58740;50.672;18.690;2023-07-24T02:09:56;9.90;;;5.30;;
71080;SDS011;58740;50.672;18.690;2023-07-24T02:12:24;9.30;;;5.80;;
71080;SDS011;58740;50.672;18.690;2023-07-24T02:14:52;10.90;;;5.90;;
71080;SDS011;58740;50.672;18.690;2023-07-24T02:17:20;10.80;;;6.50;;
71080;SDS011;58740;50.672;18.690;2023-07-24T02:19:48;8.50;;;5.30;;
71080;SDS011;58740;50.672;18.690;2023-07-24T02:22:16;12.90;;;6.10;;
71080;SDS011;58740;50.672;18.690;2023-07-24T02:24:44;9.50;;;5.20;;
71080;SDS011;58740;50.672;18.690;2023-07-24T02:27:13;8.60;;;5.20;;
71080;SDS011;58740;50.672;18.690;2023-07-24T02:29:51;8.30;;;4.80;;
71080;SDS011;58740;50.672;18.690;2023-07-24T02:32:20;9.40;;;5.10;;
71080;SDS011;58740;50.672;18.690;2023-07-24T02:34:50;10.40;;;4.70;;
71080;SDS011;58740;50.672;18.690;2023-07-24T02:37:19;9.90;;;5.20;;
71080;SDS011;58740;50.672;18.690;2023-07-24T02:39:47;10.80;;;4.90;;
71080;SDS011;58740;50.672;18.690;2023-07-24T02:42:15;8.30;;;4.40;;
71080;SDS011;58740;50.672;18.690;2023-07-24T02:44:42;11.10;;;5.20;;
71080;SDS011;58740;50.672;18.690;2023-07-24T02:47:10;11.20;;;5.40;;
71080;SDS011;58740;50.672;18.690;2023-07-24T02:49:38;9.70;;;4.70;;
71080;SDS011;58740;50.672;18.690;2023-07-24T02:52:05;8.60;;;4.80;;
71080;SDS011;58740;50.672;18.690;2023-07-24T02:54:33;10.90;;;5.40;;
71080;SDS011;58740;50.672;18.690;2023-07-24T02:57:01;9.90;;;5.10;;
71080;SDS011;58740;50.672;18.690;2023-07-24T02:59:30;11.10;;;5.70;;
71080;SDS011;58740;50.672;18.690;2023-07-24T03:01:59;10.60;;;5.40;;
71080;SDS011;58740;50.672;18.690;2023-07-24T03:04:26;12.20;;;5.60;;
71080;SDS011;58740;50.672;18.690;2023-07-24T03:06:54;10.70;;;5.20;;
71080;SDS011;58740;50.672;18.690;2023-07-24T03:09:22;11.30;;;5.30;;
71080;SDS011;58740;50.672;18.690;2023-07-24T03:11:50;12.40;;;5.50;;
71080;SDS011;58740;50.672;18.690;2023-07-24T03:14:17;12.10;;;6.00;;
71080;SDS011;58740;50.672;18.690;2023-07-24T03:16:45;11.10;;;5.20;;
71080;SDS011;58740;50.672;18.690;2023-07-24T03:19:13;7.80;;;4.90;;
71080;SDS011;58740;50.672;18.690;2023-07-24T03:21:40;11.60;;;5.40;;
71080;SDS011;58740;50.672;18.690;2023-07-24T03:24:08;11.10;;;5.10;;
71080;SDS011;58740;50.672;18.690;2023-07-24T03:26:36;10.20;;;5.10;;
71080;SDS011;58740;50.672;18.690;2023-07-24T03:29:04;10.40;;;5.40;;
71080;SDS011;58740;50.672;18.690;2023-07-24T03:31:33;10.90;;;4.80;;
71080;SDS011;58740;50.672;18.690;2023-07-24T03:34:00;12.60;;;4.90;;
71080;SDS011;58740;50.672;18.690;2023-07-24T03:36:28;7.70;;;5.00;;
71080;SDS011;58740;50.672;18.690;2023-07-24T03:38:56;10.10;;;5.80;;
71080;SDS011;58740;50.672;18.690;2023-07-24T03:41:25;11.20;;;5.40;;
71080;SDS011;58740;50.672;18.690;2023-07-24T03:43:52;10.60;;;5.40;;
71080;SDS011;58740;50.672;18.690;2023-07-24T03:46:20;9.40;;;5.00;;
71080;SDS011;58740;50.672;18.690;2023-07-24T03:48:48;11.20;;;5.60;;
71080;SDS011;58740;50.672;18.690;2023-07-24T03:51:17;10.10;;;5.70;;
71080;SDS011;58740;50.672;18.690;2023-07-24T03:53:45;13.90;;;6.20;;
71080;SDS011;58740;50.672;18.690;2023-07-24T03:56:13;12.20;;;5.70;;
71080;SDS011;58740;50.672;18.690;2023-07-24T03:58:41;11.20;;;5.10;;
71080;SDS011;58740;50.672;18.690;2023-07-24T04:01:09;8.30;;;5.30;;
71080;SDS011;58740;50.672;18.690;2023-07-24T04:03:37;13.60;;;6.00;;
71080;SDS011;58740;50.672;18.690;2023-07-24T04:06:05;10.30;;;5.50;;
71080;SDS011;58740;50.672;18.690;2023-07-24T04:08:33;14.80;;;6.40;;
71080;SDS011;58740;50.672;18.690;2023-07-24T04:11:00;11.60;;;6.10;;
71080;SDS011;58740;50.672;18.690;2023-07-24T04:13:28;13.60;;;6.50;;
71080;SDS011;58740;50.672;18.690;2023-07-24T04:15:56;12.40;;;7.50;;
71080;SDS011;58740;50.672;18.690;2023-07-24T04:18:24;12.00;;;6.60;;
71080;SDS011;58740;50.672;18.690;2023-07-24T04:20:52;12.50;;;6.00;;
71080;SDS011;58740;50.672;18.690;2023-07-24T04:23:20;11.40;;;5.80;;
71080;SDS011;58740;50.672;18.690;2023-07-24T04:25:49;12.50;;;5.90;;
71080;SDS011;58740;50.672;18.690;2023-07-24T04:28:17;11.80;;;6.20;;
71080;SDS011;58740;50.672;18.690;2023-07-24T04:30:45;11.10;;;6.30;;
71080;SDS011;58740;50.672;18.690;2023-07-24T04:33:13;12.10;;;6.40;;
71080;SDS011;58740;50.672;18.690;2023-07-24T04:35:41;12.00;;;7.00;;
71080;SDS011;58740;50.672;18.690;2023-07-24T04:38:09;10.50;;;5.80;;
71080;SDS011;58740;50.672;18.690;2023-07-24T04:40:36;10.40;;;5.70;;
71080;SDS011;58740;50.672;18.690;2023-07-24T04:43:04;11.40;;;5.70;;
71080;SDS011;58740;50.672;18.690;2023-07-24T04:45:32;10.50;;;5.70;;
71080;SDS011;58740;50.672;18.690;2023-07-24T04:48:00;8.80;;;5.10;;
71080;SDS011;58740;50.672;18.690;2023-07-24T04:50:27;10.90;;;5.20;;
71080;SDS011;58740;50.672;18.690;2023-07-24T04:52:55;10.30;;;5.00;;
71080;SDS011;58740;50.672;18.690;2023-07-24T04:55:23;10.10;;;5.00;;
71080;SDS011;58740;50.672;18.690;2023-07-24T04:57:51;9.80;;;4.90;;
71080;SDS011;58740;50.672;18.690;2023-07-24T05:00:19;8.50;;;5.00;;
71080;SDS011;58740;50.672;18.690;2023-07-24T05:02:47;9.40;;;5.40;;
71080;SDS011;58740;50.672;18.690;2023-07-24T05:05:14;9.60;;;5.30;;
71080;SDS011;58740;50.672;18.690;2023-07-24T05:07:42;9.00;;;5.00;;
71080;SDS011;58740;50.672;18.690;2023-07-24T05:10:10;10.50;;;5.10;;
71080;SDS011;58740;50.672;18.690;2023-07-24T05:12:40;10.00;;;4.70;;
71080;SDS011;58740;50.672;18.690;2023-07-24T05:15:10;8.70;;;4.80;;
71080;SDS011;58740;50.672;18.690;2023-07-24T05:17:37;8.60;;;4.50;;
71080;SDS011;58740;50.672;18.690;2023-07-24T05:20:06;10.70;;;5.50;;
71080;SDS011;58740;50.672;18.690;2023-07-24T05:22:35;6.00;;;3.90;;
71080;SDS011;58740;50.672;18.690;2023-07-24T05:25:03;7.80;;;4.20;;
71080;SDS011;58740;50.672;18.690;2023-07-24T05:27:30;11.20;;;5.70;;
71080;SDS011;58740;50.672;18.690;2023-07-24T05:29:58;9.10;;;4.80;;
71080;SDS011;58740;50.672;18.690;2023-07-24T05:32:26;10.40;;;4.90;;
71080;SDS011;58740;50.672;18.690;2023-07-24T05:34:54;10.00;;;4.50;;
71080;SDS011;58740;50.672;18.690;2023-07-24T05:37:22;11.60;;;5.00;;
71080;SDS011;58740;50.672;18.690;2023-07-24T05:39:49;8.90;;;4.60;;
71080;SDS011;58740;50.672;18.690;2023-07-24T05:42:18;10.20;;;4.80;;
71080;SDS011;58740;50.672;18.690;2023-07-24T05:44:46;8.60;;;4.60;;
71080;SDS011;58740;50.672;18.690;2023-07-24T05:47:14;10.90;;;4.70;;
71080;SDS011;58740;50.672;18.690;2023-07-24T05:49:42;10.60;;;4.70;;
71080;SDS011;58740;50.672;18.690;2023-07-24T05:52:10;7.90;;;4.00;;
71080;SDS011;58740;50.672;18.690;2023-07-24T05:54:37;11.70;;;5.00;;
71080;SDS011;58740;50.672;18.690;2023-07-24T05:57:05;9.00;;;4.40;;
71080;SDS011;58740;50.672;18.690;2023-07-24T05:59:33;9.60;;;4.50;;
71080;SDS011;58740;50.672;18.690;2023-07-24T06:02:01;9.50;;;4.60;;
71080;SDS011;58740;50.672;18.690;2023-07-24T06:04:29;10.70;;;4.00;;
71080;SDS011;58740;50.672;18.690;2023-07-24T06:06:57;11.70;;;4.50;;
71080;SDS011;58740;50.672;18.690;2023-07-24T06:09:25;8.50;;;4.40;;
71080;SDS011;58740;50.672;18.690;2023-07-24T06:11:52;11.90;;;4.70;;
71080;SDS011;58740;50.672;18.690;2023-07-24T06:14:20;8.00;;;4.30;;
71080;SDS011;58740;50.672;18.690;2023-07-24T06:16:48;9.70;;;3.90;;
71080;SDS011;58740;50.672;18.690;2023-07-24T06:19:15;9.10;;;4.10;;
71080;SDS011;58740;50.672;18.690;2023-07-24T06:21:44;8.50;;;4.20;;
71080;SDS011;58740;50.672;18.690;2023-07-24T06:24:12;9.70;;;4.50;;
71080;SDS011;58740;50.672;18.690;2023-07-24T06:26:40;7.50;;;3.60;;
71080;SDS011;58740;50.672;18.690;2023-07-24T06:29:08;9.90;;;4.80;;
71080;SDS011;58740;50.672;18.690;2023-07-24T06:31:36;8.30;;;3.90;;
71080;SDS011;58740;50.672;18.690;2023-07-24T06:34:05;7.70;;;4.30;;
71080;SDS011;58740;50.672;18.690;2023-07-24T06:36:32;8.60;;;4.10;;
71080;SDS011;58740;50.672;18.690;2023-07-24T06:39:00;8.90;;;3.30;;
71080;SDS011;58740;50.672;18.690;2023-07-24T06:41:28;9.10;;;3.80;;
71080;SDS011;58740;50.672;18.690;2023-07-24T06:43:56;9.30;;;3.80;;
71080;SDS011;58740;50.672;18.690;2023-07-24T06:46:23;7.30;;;3.80;;
71080;SDS011;58740;50.672;18.690;2023-07-24T06:48:51;9.90;;;4.00;;
71080;SDS011;58740;50.672;18.690;2023-07-24T06:51:19;9.80;;;3.70;;
71080;SDS011;58740;50.672;18.690;2023-07-24T06:53:47;7.10;;;3.90;;
71080;SDS011;58740;50.672;18.690;2023-07-24T06:56:15;6.60;;;3.10;;
71080;SDS011;58740;50.672;18.690;2023-07-24T06:58:42;7.20;;;3.80;;
71080;SDS011;58740;50.672;18.690;2023-07-24T07:01:10;8.90;;;4.00;;
71080;SDS011;58740;50.672;18.690;2023-07-24T07:03:38;6.80;;;3.70;;
71080;SDS011;58740;50.672;18.690;2023-07-24T07:06:06;9.40;;;3.60;;
71080;SDS011;58740;50.672;18.690;2023-07-24T07:08:34;7.60;;;4.10;;
71080;SDS011;58740;50.672;18.690;2023-07-24T07:11:01;7.80;;;4.00;;
71080;SDS011;58740;50.672;18.690;2023-07-24T07:13:29;7.60;;;3.30;;
71080;SDS011;58740;50.672;18.690;2023-07-24T07:15:57;8.20;;;3.90;;
71080;SDS011;58740;50.672;18.690;2023-07-24T07:18:25;7.30;;;3.80;;
71080;SDS011;58740;50.672;18.690;2023-07-24T07:20:53;6.90;;;3.80;;
71080;SDS011;58740;50.672;18.690;2023-07-24T07:23:21;6.60;;;3.30;;
71080;SDS011;58740;50.672;18.690;2023-07-24T07:25:51;7.40;;;3.60;;
71080;SDS011;58740;50.672;18.690;2023-07-24T07:28:19;10.40;;;4.20;;
71080;SDS011;58740;50.672;18.690;2023-07-24T07:30:46;6.70;;;3.60;;
71080;SDS011;58740;50.672;18.690;2023-07-24T07:33:14;7.50;;;3.40;;
71080;SDS011;58740;50.672;18.690;2023-07-24T07:35:42;7.00;;;4.00;;
71080;SDS011;58740;50.672;18.690;2023-07-24T07:38:10;7.10;;;3.80;;
71080;SDS011;58740;50.672;18.690;2023-07-24T07:40:38;7.20;;;3.40;;
71080;SDS011;58740;50.672;18.690;2023-07-24T07:43:09;7.40;;;3.50;;
71080;SDS011;58740;50.672;18.690;2023-07-24T07:45:36;7.50;;;3.60;;
71080;SDS011;58740;50.672;18.690;2023-07-24T07:48:05;8.30;;;4.50;;
71080;SDS011;58740;50.672;18.690;2023-07-24T07:50:33;8.80;;;4.40;;
71080;SDS011;58740;50.672;18.690;2023-07-24T07:53:01;9.10;;;4.20;;
71080;SDS011;58740;50.672;18.690;2023-07-24T07:55:28;8.40;;;4.20;;
71080;SDS011;58740;50.672;18.690;2023-07-24T07:57:56;7.40;;;3.40;;
71080;SDS011;58740;50.672;18.690;2023-07-24T08:00:24;7.70;;;4.00;;
71080;SDS011;58740;50.672;18.690;2023-07-24T08:02:52;8.70;;;4.40;;
71080;SDS011;58740;50.672;18.690;2023-07-24T08:05:19;8.10;;;3.80;;
71080;SDS011;58740;50.672;18.690;2023-07-24T08:07:48;8.30;;;4.20;;
71080;SDS011;58740;50.672;18.690;2023-07-24T08:10:16;10.10;;;4.30;;
71080;SDS011;58740;50.672;18.690;2023-07-24T08:12:44;8.00;;;4.30;;
71080;SDS011;58740;50.672;18.690;2023-07-24T08:15:12;10.40;;;4.20;;
71080;SDS011;58740;50.672;18.690;2023-07-24T08:17:40;8.10;;;4.50;;
71080;SDS011;58740;50.672;18.690;2023-07-24T08:20:08;7.70;;;4.10;;
71080;SDS011;58740;50.672;18.690;2023-07-24T08:22:36;8.00;;;4.40;;
71080;SDS011;58740;50.672;18.690;2023-07-24T08:25:04;8.50;;;4.40;;
71080;SDS011;58740;50.672;18.690;2023-07-24T08:27:32;9.00;;;5.20;;
71080;SDS011;58740;50.672;18.690;2023-07-24T08:30:08;7.80;;;3.80;;
71080;SDS011;58740;50.672;18.690;2023-07-24T08:32:36;8.50;;;4.40;;
71080;SDS011;58740;50.672;18.690;2023-07-24T08:35:04;9.20;;;5.10;;
71080;SDS011;58740;50.672;18.690;2023-07-24T08:37:32;9.40;;;4.30;;
71080;SDS011;58740;50.672;18.690;2023-07-24T08:39:59;9.40;;;5.00;;
71080;SDS011;58740;50.672;18.690;2023-07-24T08:42:28;9.20;;;4.80;;
71080;SDS011;58740;50.672;18.690;2023-07-24T08:44:56;8.60;;;5.00;;
71080;SDS011;58740;50.672;18.690;2023-07-24T08:47:25;8.20;;;4.50;;
71080;SDS011;58740;50.672;18.690;2023-07-24T08:49:54;8.90;;;4.40;;
71080;SDS011;58740;50.672;18.690;2023-07-24T08:52:22;10.10;;;4.40;;
71080;SDS011;58740;50.672;18.690;2023-07-24T08:55:04;8.00;;;4.50;;
71080;SDS011;58740;50.672;18.690;2023-07-24T08:57:33;8.20;;;4.50;;
71080;SDS011;58740;50.672;18.690;2023-07-24T09:00:02;7.50;;;4.60;;
71080;SDS011;58740;50.672;18.690;2023-07-24T09:02:33;8.60;;;5.00;;
71080;SDS011;58740;50.672;18.690;2023-07-24T09:05:02;8.80;;;4.20;;
71080;SDS011;58740;50.672;18.690;2023-07-24T09:07:31;9.00;;;5.10;;
71080;SDS011;58740;50.672;18.690;2023-07-24T09:09:59;9.90;;;5.10;;
71080;SDS011;58740;50.672;18.690;2023-07-24T09:12:27;9.40;;;4.90;;
71080;SDS011;58740;50.672;18.690;2023-07-24T09:15:04;8.80;;;4.90;;
71080;SDS011;58740;50.672;18.690;2023-07-24T09:17:34;9.60;;;4.70;;
71080;SDS011;58740;50.672;18.690;2023-07-24T09:20:03;10.10;;;5.30;;
71080;SDS011;58740;50.672;18.690;2023-07-24T09:22:31;10.80;;;5.20;;
71080;SDS011;58740;50.672;18.690;2023-07-24T09:25:01;10.00;;;5.70;;
71080;SDS011;58740;50.672;18.690;2023-07-24T09:27:31;8.80;;;4.40;;
71080;SDS011;58740;50.672;18.690;2023-07-24T09:30:01;10.70;;;5.70;;
71080;SDS011;58740;50.672;18.690;2023-07-24T09:32:29;11.50;;;5.70;;
71080;SDS011;58740;50.672;18.690;2023-07-24T09:34:59;10.10;;;5.30;;
71080;SDS011;58740;50.672;18.690;2023-07-24T09:37:30;11.20;;;5.40;;
71080;SDS011;58740;50.672;18.690;2023-07-24T09:40:03;10.80;;;5.20;;
71080;SDS011;58740;50.672;18.690;2023-07-24T09:42:33;10.70;;;5.50;;
71080;SDS011;58740;50.672;18.690;2023-07-24T09:45:11;10.40;;;5.70;;
71080;SDS011;58740;50.672;18.690;2023-07-24T09:47:39;9.60;;;5.30;;
71080;SDS011;58740;50.672;18.690;2023-07-24T09:50:10;10.60;;;5.60;;
71080;SDS011;58740;50.672;18.690;2023-07-24T09:52:40;9.60;;;4.90;;
71080;SDS011;58740;50.672;18.690;2023-07-24T09:55:21;9.60;;;5.40;;
71080;SDS011;58740;50.672;18.690;2023-07-24T09:57:58;10.90;;;5.20;;
71080;SDS011;58740;50.672;18.690;2023-07-24T10:00:28;9.80;;;5.40;;
71080;SDS011;58740;50.672;18.690;2023-07-24T10:02:56;10.00;;;5.40;;
71080;SDS011;58740;50.672;18.690;2023-07-24T10:05:26;10.90;;;6.00;;
71080;SDS011;58740;50.672;18.690;2023-07-24T10:07:55;9.30;;;5.20;;
71080;SDS011;58740;50.672;18.690;2023-07-24T10:10:23;9.70;;;5.10;;
71080;SDS011;58740;50.672;18.690;2023-07-24T10:12:51;10.50;;;5.20;;
71080;SDS011;58740;50.672;18.690;2023-07-24T10:15:19;12.00;;;5.20;;
71080;SDS011;58740;50.672;18.690;2023-07-24T10:17:47;12.00;;;5.20;;
71080;SDS011;58740;50.672;18.690;2023-07-24T10:20:16;9.60;;;5.00;;
71080;SDS011;58740;50.672;18.690;2023-07-24T10:22:45;11.10;;;5.80;;
71080;SDS011;58740;50.672;18.690;2023-07-24T10:25:13;11.00;;;6.00;;
71080;SDS011;58740;50.672;18.690;2023-07-24T10:27:42;12.20;;;5.30;;
71080;SDS011;58740;50.672;18.690;2023-07-24T10:30:11;10.10;;;5.70;;
71080;SDS011;58740;50.672;18.690;2023-07-24T10:32:46;10.10;;;5.50;;
71080;SDS011;58740;50.672;18.690;2023-07-24T10:35:17;10.40;;;5.50;;
71080;SDS011;58740;50.672;18.690;2023-07-24T10:37:47;10.70;;;5.20;;
71080;SDS011;58740;50.672;18.690;2023-07-24T10:40:27;9.70;;;5.20;;
71080;SDS011;58740;50.672;18.690;2023-07-24T10:43:05;11.10;;;5.30;;
71080;SDS011;58740;50.672;18.690;2023-07-24T10:45:41;9.70;;;5.70;;
71080;SDS011;58740;50.672;18.690;2023-07-24T10:48:09;10.10;;;5.80;;
71080;SDS011;58740;50.672;18.690;2023-07-24T10:50:40;10.10;;;5.30;;
71080;SDS011;58740;50.672;18.690;2023-07-24T10:53:14;11.00;;;5.10;;
71080;SDS011;58740;50.672;18.690;2023-07-24T10:55:44;11.10;;;6.00;;
71080;SDS011;58740;50.672;18.690;2023-07-24T10:58:15;10.20;;;5.10;;
71080;SDS011;58740;50.672;18.690;2023-07-24T11:00:43;10.00;;;5.60;;
71080;SDS011;58740;50.672;18.690;2023-07-24T11:03:13;10.10;;;5.20;;
71080;SDS011;58740;50.672;18.690;2023-07-24T11:05:45;11.50;;;6.20;;
71080;SDS011;58740;50.672;18.690;2023-07-24T11:08:16;13.00;;;5.50;;
71080;SDS011;58740;50.672;18.690;2023-07-24T11:10:53;11.30;;;4.90;;
71080;SDS011;58740;50.672;18.690;2023-07-24T11:13:24;12.60;;;5.80;;
71080;SDS011;58740;50.672;18.690;2023-07-24T11:15:54;10.70;;;5.60;;
71080;SDS011;58740;50.672;18.690;2023-07-24T11:18:22;11.10;;;6.10;;
71080;SDS011;58740;50.672;18.690;2023-07-24T11:21:11;12.20;;;6.20;;
71080;SDS011;58740;50.672;18.690;2023-07-24T11:23:50;10.90;;;6.20;;
71080;SDS011;58740;50.672;18.690;2023-07-24T11:26:23;12.90;;;5.70;;
71080;SDS011;58740;50.672;18.690;2023-07-24T11:28:53;10.60;;;6.00;;
71080;SDS011;58740;50.672;18.690;2023-07-24T11:31:21;11.70;;;5.80;;
71080;SDS011;58740;50.672;18.690;2023-07-24T11:33:50;9.80;;;4.70;;
71080;SDS011;58740;50.672;18.690;2023-07-24T11:36:20;11.00;;;5.80;;
71080;SDS011;58740;50.672;18.690;2023-07-24T11:38:49;10.70;;;5.90;;
71080;SDS011;58740;50.672;18.690;2023-07-24T11:41:17;11.70;;;6.10;;
71080;SDS011;58740;50.672;18.690;2023-07-24T11:43:50;11.60;;;6.10;;
71080;SDS011;58740;50.672;18.690;2023-07-24T11:46:26;11.00;;;6.60;;
71080;SDS011;58740;50.672;18.690;2023-07-24T11:48:56;11.20;;;6.30;;
71080;SDS011;58740;50.672;18.690;2023-07-24T11:51:26;9.80;;;5.20;;
71080;SDS011;58740;50.672;18.690;2023-07-24T11:54:11;10.60;;;5.90;;
71080;SDS011;58740;50.672;18.690;2023-07-24T11:56:40;12.50;;;6.10;;
71080;SDS011;58740;50.672;18.690;2023-07-24T11:59:11;10.40;;;5.90;;
71080;SDS011;58740;50.672;18.690;2023-07-24T12:01:45;12.40;;;5.70;;
71080;SDS011;58740;50.672;18.690;2023-07-24T12:04:16;11.50;;;6.20;;
71080;SDS011;58740;50.672;18.690;2023-07-24T12:06:44;10.90;;;5.60;;
71080;SDS011;58740;50.672;18.690;2023-07-24T12:09:12;10.70;;;5.10;;
71080;SDS011;58740;50.672;18.690;2023-07-24T12:11:44;12.00;;;5.90;;
71080;SDS011;58740;50.672;18.690;2023-07-24T12:14:13;12.30;;;5.90;;
71080;SDS011;58740;50.672;18.690;2023-07-24T12:16:42;11.30;;;6.20;;
71080;SDS011;58740;50.672;18.690;2023-07-24T12:19:11;14.60;;;6.20;;
71080;SDS011;58740;50.672;18.690;2023-07-24T12:21:38;11.90;;;6.20;;
71080;SDS011;58740;50.672;18.690;2023-07-24T12:24:06;10.70;;;6.10;;
71080;SDS011;58740;50.672;18.690;2023-07-24T12:26:34;11.10;;;6.00;;
71080;SDS011;58740;50.672;18.690;2023-07-24T12:29:02;10.70;;;6.30;;
71080;SDS011;58740;50.672;18.690;2023-07-24T12:31:29;11.40;;;6.10;;
71080;SDS011;58740;50.672;18.690;2023-07-24T12:33:58;10.40;;;5.70;;
71080;SDS011;58740;50.672;18.690;2023-07-24T12:36:25;12.70;;;6.30;;
71080;SDS011;58740;50.672;18.690;2023-07-24T12:38:53;12.30;;;6.40;;
71080;SDS011;58740;50.672;18.690;2023-07-24T12:41:21;11.20;;;5.90;;
71080;SDS011;58740;50.672;18.690;2023-07-24T12:43:49;12.10;;;6.70;;
71080;SDS011;58740;50.672;18.690;2023-07-24T12:46:17;12.90;;;5.80;;
71080;SDS011;58740;50.672;18.690;2023-07-24T12:48:45;11.30;;;6.40;;
71080;SDS011;58740;50.672;18.690;2023-07-24T12:51:12;12.30;;;6.50;;
71080;SDS011;58740;50.672;18.690;2023-07-24T12:53:40;9.90;;;6.10;;
71080;SDS011;58740;50.672;18.690;2023-07-24T12:56:14;14.40;;;8.00;;
71080;SDS011;58740;50.672;18.690;2023-07-24T12:58:42;10.10;;;6.10;;
71080;SDS011;58740;50.672;18.690;2023-07-24T13:01:09;12.80;;;7.40;;
71080;SDS011;58740;50.672;18.690;2023-07-24T13:03:37;11.40;;;6.50;;
71080;SDS011;58740;50.672;18.690;2023-07-24T13:06:05;11.00;;;6.60;;
71080;SDS011;58740;50.672;18.690;2023-07-24T13:08:33;11.50;;;6.20;;
71080;SDS011;58740;50.672;18.690;2023-07-24T13:11:01;12.00;;;7.20;;
71080;SDS011;58740;50.672;18.690;2023-07-24T13:13:28;11.00;;;6.50;;
71080;SDS011;58740;50.672;18.690;2023-07-24T13:15:58;11.40;;;6.80;;
71080;SDS011;58740;50.672;18.690;2023-07-24T13:18:26;12.20;;;6.50;;
71080;SDS011;58740;50.672;18.690;2023-07-24T13:20:56;13.60;;;7.20;;
71080;SDS011;58740;50.672;18.690;2023-07-24T13:23:24;11.70;;;6.20;;
71080;SDS011;58740;50.672;18.690;2023-07-24T13:25:52;10.80;;;7.00;;
71080;SDS011;58740;50.672;18.690;2023-07-24T13:28:21;12.50;;;7.00;;
71080;SDS011;58740;50.672;18.690;2023-07-24T13:30:48;11.70;;;7.00;;
71080;SDS011;58740;50.672;18.690;2023-07-24T13:33:16;11.40;;;6.80;;
71080;SDS011;58740;50.672;18.690;2023-07-24T13:35:44;13.00;;;7.30;;
71080;SDS011;58740;50.672;18.690;2023-07-24T13:38:12;11.20;;;7.10;;
71080;SDS011;58740;50.672;18.690;2023-07-24T13:40:40;10.60;;;6.80;;
71080;SDS011;58740;50.672;18.690;2023-07-24T13:43:08;12.10;;;6.90;;
71080;SDS011;58740;50.672;18.690;2023-07-24T13:45:36;12.70;;;6.00;;
71080;SDS011;58740;50.672;18.690;2023-07-24T13:48:04;11.80;;;7.20;;
71080;SDS011;58740;50.672;18.690;2023-07-24T13:50:32;11.80;;;6.70;;
71080;SDS011;58740;50.672;18.690;2023-07-24T13:52:59;11.30;;;6.10;;
71080;SDS011;58740;50.672;18.690;2023-07-24T13:55:27;11.50;;;6.30;;
71080;SDS011;58740;50.672;18.690;2023-07-24T13:57:55;11.40;;;7.00;;
71080;SDS011;58740;50.672;18.690;2023-07-24T14:00:23;14.40;;;7.20;;
71080;SDS011;58740;50.672;18.690;2023-07-24T14:02:50;10.00;;;6.30;;
71080;SDS011;58740;50.672;18.690;2023-07-24T14:05:18;12.20;;;7.20;;
71080;SDS011;58740;50.672;18.690;2023-07-24T14:07:46;11.50;;;6.80;;
71080;SDS011;58740;50.672;18.690;2023-07-24T14:10:14;11.70;;;7.00;;
71080;SDS011;58740;50.672;18.690;2023-07-24T14:12:42;13.20;;;7.30;;
71080;SDS011;58740;50.672;18.690;2023-07-24T14:15:10;18.10;;;7.10;;
71080;SDS011;58740;50.672;18.690;2023-07-24T14:17:38;12.30;;;7.70;;
71080;SDS011;58740;50.672;18.690;2023-07-24T14:20:06;12.30;;;6.50;;
71080;SDS011;58740;50.672;18.690;2023-07-24T14:22:35;10.40;;;5.80;;
71080;SDS011;58740;50.672;18.690;2023-07-24T14:25:03;11.70;;;6.80;;
71080;SDS011;58740;50.672;18.690;2023-07-24T14:27:32;11.20;;;6.60;;
71080;SDS011;58740;50.672;18.690;2023-07-24T14:30:00;12.50;;;6.40;;
71080;SDS011;58740;50.672;18.690;2023-07-24T14:32:27;13.10;;;6.40;;
71080;SDS011;58740;50.672;18.690;2023-07-24T14:34:55;12.20;;;6.30;;
71080;SDS011;58740;50.672;18.690;2023-07-24T14:37:23;12.50;;;6.90;;
71080;SDS011;58740;50.672;18.690;2023-07-24T14:39:51;12.70;;;7.10;;
71080;SDS011;58740;50.672;18.690;2023-07-24T14:42:18;11.80;;;7.10;;